Time;durP1;ratioP1;P1;durP2;ratioP2;P2;SDS_P1;SDS_P2;PMS_P1;PMS_P2;Temp;Humidity;BMP_temperature;BMP_pressure;BME280_temperature;BME280_humidity;BME280_pressure;Samples;Min_cycle;Max_cycle;Signal;HPM_P1;HPM_P2
2021/05/12 00:00:39;;;;;;;1.57;1.23;;;;;;;12.93;100.00;98145.72;4911641;28;103215;-73
2021/05/12 00:03:06;;;;;;;2.23;1.37;;;;;;;12.97;100.00;98141.78;4910758;28;104781;-74
2021/05/12 00:05:34;;;;;;;1.43;1.33;;;;;;;12.98;100.00;98143.47;4910083;28;103898;-74
2021/05/12 00:08:02;;;;;;;2.03;1.40;;;;;;;12.96;100.00;98140.13;4911354;28;102971;-74
2021/05/12 00:10:29;;;;;;;1.30;1.20;;;;;;;12.93;100.00;98151.00;4911336;28;103416;-74
2021/05/12 00:12:57;;;;;;;1.80;1.50;;;;;;;13.01;100.00;98145.84;4918102;28;104979;-74
2021/05/12 00:15:25;;;;;;;1.17;1.07;;;;;;;13.00;100.00;98146.81;4910178;28;103385;-74
2021/05/12 00:17:54;;;;;;;1.63;1.17;;;;;;;12.95;100.00;98157.00;4916260;28;103121;-75
2021/05/12 00:20:25;;;;;;;1.77;1.60;;;;;;;12.88;100.00;98153.25;4923330;28;103197;-75
2021/05/12 00:22:56;;;;;;;1.73;1.50;;;;;;;12.83;100.00;98151.97;4914789;28;103921;-73
2021/05/12 00:25:24;;;;;;;1.50;1.40;;;;;;;12.79;100.00;98159.38;4910544;28;103681;-74
2021/05/12 00:27:52;;;;;;;2.00;1.80;;;;;;;12.65;100.00;98160.59;4922084;28;103421;-74
2021/05/12 00:30:21;;;;;;;3.83;2.27;;;;;;;12.59;100.00;98168.25;4903144;28;102737;-74
2021/05/12 00:32:50;;;;;;;2.83;1.67;;;;;;;12.58;100.00;98164.75;4884971;28;105203;-74
2021/05/12 00:35:19;;;;;;;2.50;1.97;;;;;;;12.48;100.00;98176.31;4895667;28;103868;-74
2021/05/12 00:37:46;;;;;;;2.03;1.93;;;;;;;12.42;100.00;98171.53;4906700;28;102596;-74
2021/05/12 00:40:16;;;;;;;2.20;2.10;;;;;;;12.55;100.00;98164.19;4914822;28;102963;-74
2021/05/12 00:42:44;;;;;;;1.90;1.80;;;;;;;12.56;100.00;98168.53;4910485;28;103495;-74
2021/05/12 00:45:14;;;;;;;3.40;2.10;;;;;;;12.47;100.00;98174.63;4909666;28;111763;-74
2021/05/12 00:47:42;;;;;;;2.20;2.00;;;;;;;12.39;100.00;98167.34;4910092;28;103092;-74
2021/05/12 00:50:11;;;;;;;2.27;1.70;;;;;;;12.39;100.00;98177.94;4906617;28;103397;-74
2021/05/12 00:52:38;;;;;;;2.47;1.43;;;;;;;12.46;100.00;98172.97;4909440;28;103896;-74
2021/05/12 00:55:07;;;;;;;2.57;2.30;;;;;;;12.34;100.00;98172.22;4892805;28;110252;-74
2021/05/12 00:57:35;;;;;;;2.23;1.80;;;;;;;12.20;100.00;98178.72;4911511;28;103397;-74
2021/05/12 01:00:06;;;;;;;3.07;2.10;;;;;;;12.20;100.00;98177.88;4898411;28;103208;-74
2021/05/12 01:02:34;;;;;;;2.87;1.87;;;;;;;12.17;100.00;98180.81;4902129;28;103858;-74
2021/05/12 01:05:02;;;;;;;2.50;1.87;;;;;;;12.24;100.00;98179.28;4910186;28;106262;-75
2021/05/12 01:07:31;;;;;;;1.80;1.70;;;;;;;12.20;100.00;98186.69;4915371;28;103071;-75
2021/05/12 01:09:59;;;;;;;2.93;1.70;;;;;;;12.22;100.00;98186.53;4913709;28;103005;-74
2021/05/12 01:12:26;;;;;;;2.40;1.77;;;;;;;12.23;100.00;98187.38;4909825;28;103950;-75
2021/05/12 01:14:54;;;;;;;1.87;1.63;;;;;;;12.17;100.00;98189.59;4907739;28;104707;-73
2021/05/12 01:17:21;;;;;;;1.60;1.40;;;;;;;12.18;100.00;98193.88;4910517;28;103337;-75
2021/05/12 01:19:49;;;;;;;2.00;1.70;;;;;;;12.14;100.00;98196.94;4910391;28;103194;-74
2021/05/12 01:22:17;;;;;;;3.30;1.40;;;;;;;12.03;100.00;98192.59;4910309;28;104574;-75
2021/05/12 01:24:45;;;;;;;3.07;1.37;;;;;;;12.00;100.00;98192.84;4920325;28;104219;-75
2021/05/12 01:27:12;;;;;;;3.27;1.83;;;;;;;12.04;100.00;98188.94;4909994;28;103084;-74
2021/05/12 01:29:40;;;;;;;2.00;1.07;;;;;;;12.12;100.00;98199.75;4909320;28;103219;-74
2021/05/12 01:32:09;;;;;;;1.50;1.20;;;;;;;12.08;100.00;98195.66;4909701;28;103928;-74
2021/05/12 01:34:37;;;;;;;3.73;1.80;;;;;;;12.13;100.00;98196.09;4897762;28;104744;-74
2021/05/12 01:37:04;;;;;;;3.17;1.60;;;;;;;12.03;100.00;98203.19;4910931;28;102931;-74
2021/05/12 01:39:33;;;;;;;1.73;1.53;;;;;;;11.96;100.00;98196.72;4910338;28;102757;-74
2021/05/12 01:42:01;;;;;;;1.83;1.27;;;;;;;11.99;100.00;98191.16;4891579;28;104831;-74
2021/05/12 01:44:28;;;;;;;2.50;1.70;;;;;;;11.91;99.85;98193.63;4909327;28;103774;-74
2021/05/12 01:46:55;;;;;;;2.07;1.87;;;;;;;11.94;100.00;98192.53;4902883;28;103073;-74
2021/05/12 01:49:29;;;;;;;1.80;1.57;;;;;;;12.05;100.00;98198.59;4906593;28;102894;-73
2021/05/12 01:52:00;;;;;;;1.90;1.70;;;;;;;11.76;100.00;98197.56;4909617;28;103883;-74
2021/05/12 01:54:27;;;;;;;2.70;2.10;;;;;;;11.82;100.00;98189.13;4909042;28;103759;-74
2021/05/12 01:56:55;;;;;;;2.47;2.13;;;;;;;11.89;100.00;98192.94;4891842;28;102795;-75
2021/05/12 01:59:23;;;;;;;2.73;2.10;;;;;;;11.80;100.00;98206.94;4910091;28;102954;-74
2021/05/12 02:01:51;;;;;;;2.40;2.20;;;;;;;11.84;99.88;98203.06;4904148;28;105035;-75
2021/05/12 02:04:18;;;;;;;5.13;2.53;;;;;;;11.81;99.33;98205.97;4908896;28;104202;-74
2021/05/12 02:06:46;;;;;;;2.73;2.50;;;;;;;11.89;99.27;98195.56;4908422;28;103140;-74
2021/05/12 02:09:14;;;;;;;2.67;2.20;;;;;;;11.89;100.00;98200.88;4917717;28;103601;-75
2021/05/12 02:11:41;;;;;;;2.80;2.60;;;;;;;11.76;100.00;98194.94;4907887;28;110803;-74
2021/05/12 02:14:10;;;;;;;2.77;2.57;;;;;;;11.67;100.00;98194.84;4908737;28;114749;-75
2021/05/12 02:16:37;;;;;;;3.20;2.80;;;;;;;11.62;100.00;98198.72;4913264;28;103008;-74
2021/05/12 02:19:05;;;;;;;2.70;2.50;;;;;;;11.67;100.00;98190.41;4888081;28;103374;-75
2021/05/12 02:21:33;;;;;;;2.93;2.50;;;;;;;11.71;99.74;98185.69;4917516;28;103890;-74
2021/05/12 02:24:00;;;;;;;3.20;2.90;;;;;;;11.62;99.58;98190.78;4912512;28;103746;-74
2021/05/12 02:26:28;;;;;;;4.80;3.47;;;;;;;11.55;99.69;98191.44;4909149;28;103045;-74
2021/05/12 02:28:57;;;;;;;4.63;3.63;;;;;;;11.52;100.00;98197.81;4909291;28;102792;-75
2021/05/12 02:31:25;;;;;;;4.43;3.83;;;;;;;11.40;100.00;98187.41;4920216;28;103764;-74
2021/05/12 02:33:53;;;;;;;4.40;3.33;;;;;;;11.39;99.83;98181.31;4897982;28;103256;-74
2021/05/12 04:24:05;;;;;;;10.00;8.13;;;;;;;11.37;99.75;98208.81;4785845;26;103991;-81
2021/05/12 04:26:33;;;;;;;9.57;7.57;;;;;;;11.38;99.51;98205.22;4798351;29;103223;-81
2021/05/12 04:29:00;;;;;;;13.17;8.77;;;;;;;11.44;100.00;98207.34;4812038;29;103116;-81
2021/05/12 04:31:28;;;;;;;9.50;8.10;;;;;;;11.52;99.41;98208.41;4793534;29;103811;-81
2021/05/12 04:33:55;;;;;;;9.70;7.73;;;;;;;11.53;99.07;98214.53;4815555;29;103744;-81
2021/05/12 04:36:23;;;;;;;8.60;7.07;;;;;;;11.46;99.03;98216.84;4817181;29;103051;-80
2021/05/12 04:38:50;;;;;;;9.50;7.00;;;;;;;11.52;99.00;98220.78;4822884;29;103700;-78
2021/05/12 04:41:19;;;;;;;9.90;7.73;;;;;;;11.61;99.04;98218.22;4815877;29;103406;-79
2021/05/12 04:43:46;;;;;;;9.40;6.33;;;;;;;11.64;99.03;98227.69;4815658;29;104231;-78
2021/05/12 04:46:15;;;;;;;6.73;5.77;;;;;;;11.71;98.80;98222.75;4815690;29;102924;-77
2021/05/12 04:48:42;;;;;;;8.57;6.70;;;;;;;11.67;97.91;98222.16;4816009;29;103010;-77
2021/05/12 04:51:10;;;;;;;7.47;6.43;;;;;;;11.64;98.26;98223.25;4815449;29;103928;-78
2021/05/12 04:53:39;;;;;;;9.17;6.60;;;;;;;11.51;97.75;98227.03;4821825;29;103878;-78
2021/05/12 04:56:06;;;;;;;8.57;7.20;;;;;;;11.49;99.01;98228.97;4814407;29;103082;-80
2021/05/12 04:58:35;;;;;;;8.13;6.03;;;;;;;11.54;97.69;98234.72;4798875;29;103410;-82
2021/05/12 05:01:03;;;;;;;8.37;6.60;;;;;;;11.49;97.76;98228.97;4802497;29;104895;-80
2021/05/12 05:03:30;;;;;;;7.83;6.17;;;;;;;11.47;97.36;98236.19;4809912;29;104879;-83
2021/05/12 05:05:59;;;;;;;5.77;5.20;;;;;;;11.50;97.60;98235.94;4815944;29;102936;-82
2021/05/12 05:08:27;;;;;;;8.90;6.53;;;;;;;11.47;96.73;98246.78;4826423;29;103072;-81
2021/05/12 05:10:55;;;;;;;8.13;5.33;;;;;;;11.48;97.32;98248.47;4798100;29;107542;-81
2021/05/12 05:13:22;;;;;;;6.93;5.20;;;;;;;11.49;97.06;98242.19;4814940;29;104544;-82
2021/05/12 05:15:51;;;;;;;5.63;5.13;;;;;;;11.55;96.85;98253.13;4815720;29;103207;-81
2021/05/12 05:18:19;;;;;;;5.43;4.23;;;;;;;11.69;96.88;98252.00;4816047;29;102926;-78
2021/05/12 05:20:46;;;;;;;6.17;4.33;;;;;;;11.63;97.73;98257.75;4813860;29;103926;-84
2021/05/12 05:23:16;;;;;;;5.63;4.40;;;;;;;11.68;96.76;98246.81;4819221;29;103864;-78
2021/05/12 05:25:43;;;;;;;6.73;4.67;;;;;;;11.67;97.04;98259.19;4797685;29;102863;-78
2021/05/12 05:28:14;;;;;;;8.90;5.60;;;;;;;11.65;96.58;98266.41;4830392;29;103181;-76
2021/05/12 05:30:42;;;;;;;6.37;4.67;;;;;;;11.64;95.96;98264.75;4825566;29;103500;-77
2021/05/12 05:33:28;;;;;;;6.23;4.63;;;;;;;11.75;96.27;98269.16;4813265;29;106781;-77
2021/05/12 05:36:16;;;;;;;4.97;4.47;;;;;;;11.77;96.08;98260.13;4828814;29;103529;-77
2021/05/12 05:39:02;;;;;;;7.23;4.63;;;;;;;11.81;96.23;98277.44;4820240;29;102960;-79
2021/05/12 05:42:05;;;;;;;6.20;4.47;;;;;;;11.83;97.02;98275.50;4739873;29;105179;-78
2021/05/12 05:44:52;;;;;;;4.50;3.73;;;;;;;11.76;97.30;98273.50;4826850;29;104178;-78
2021/05/12 05:47:38;;;;;;;6.27;3.90;;;;;;;11.81;96.76;98272.16;4832195;29;102918;-80
2021/05/12 05:50:26;;;;;;;4.03;3.73;;;;;;;11.88;96.76;98272.44;4832163;29;104007;-81
2021/05/12 05:53:12;;;;;;;3.73;3.13;;;;;;;11.85;96.11;98272.69;4817861;29;106205;-80
2021/05/12 05:55:58;;;;;;;4.53;3.53;;;;;;;11.92;96.07;98277.38;4822196;29;106025;-80
2021/05/12 05:59:01;;;;;;;3.50;2.93;;;;;;;11.82;98.03;98272.97;4766391;29;103063;-79
2021/05/12 06:01:47;;;;;;;3.53;3.13;;;;;;;11.82;95.58;98281.75;4810245;29;103663;-81
2021/05/12 06:04:16;;;;;;;5.53;4.70;;;;;;;11.78;95.40;98284.78;4799112;29;104350;-80
2021/05/12 06:07:02;;;;;;;8.33;5.37;;;;;;;11.81;95.17;98290.66;4808211;29;103723;-80
2021/05/12 06:09:48;;;;;;;6.40;4.70;;;;;;;11.78;94.10;98298.88;4813836;29;103053;-80
2021/05/12 06:12:35;;;;;;;6.83;4.80;;;;;;;11.73;95.02;98305.50;4812047;29;103326;-76
2021/05/12 06:15:21;;;;;;;4.57;4.17;;;;;;;11.72;93.78;98303.81;4813794;29;103517;-83
2021/05/12 06:18:10;;;;;;;3.50;3.20;;;;;;;11.69;94.05;98296.97;4811724;29;105721;-74
2021/05/12 06:20:56;;;;;;;3.53;3.10;;;;;;;11.92;93.61;98298.56;4811878;29;103118;-73
2021/05/12 06:23:44;;;;;;;4.53;3.73;;;;;;;11.87;93.12;98291.97;4812008;29;103471;-73
2021/05/12 06:26:51;;;;;;;4.07;3.23;;;;;;;11.83;92.33;98291.38;4759640;29;103329;-73
2021/05/12 06:29:37;;;;;;;4.13;3.20;;;;;;;11.80;92.92;98290.78;4765011;29;103752;-73
2021/05/12 06:32:24;;;;;;;4.57;3.37;;;;;;;11.91;93.16;98299.50;4787820;29;103532;-74
2021/05/12 06:35:11;;;;;;;5.37;3.83;;;;;;;11.84;93.98;98293.06;4793828;29;103459;-74
2021/05/12 06:37:57;;;;;;;5.83;3.97;;;;;;;11.86;93.30;98296.41;4793960;29;103927;-75
2021/05/12 06:40:26;;;;;;;5.90;3.37;;;;;;;11.83;92.03;98295.81;4800432;29;103309;-75
2021/05/12 06:42:54;;;;;;;4.20;2.83;;;;;;;11.93;92.41;98297.56;4805159;29;103258;-74
2021/05/12 06:45:21;;;;;;;3.30;3.00;;;;;;;11.88;91.61;98305.06;4807420;29;103400;-74
2021/05/12 06:47:53;;;;;;;3.00;2.73;;;;;;;11.71;91.12;98297.69;4804057;29;103785;-74
2021/05/12 06:50:23;;;;;;;3.57;2.73;;;;;;;11.64;91.54;98299.13;4802528;29;104237;-74
2021/05/12 06:52:54;;;;;;;4.60;3.63;;;;;;;11.60;91.69;98301.19;4800861;29;103378;-73
2021/05/12 06:55:23;;;;;;;5.17;2.80;;;;;;;11.73;90.95;98301.06;4807961;29;103381;-73
2021/05/12 06:57:52;;;;;;;4.93;3.20;;;;;;;11.85;90.87;98294.72;4806087;29;104109;-74
2021/05/12 07:00:21;;;;;;;5.77;2.93;;;;;;;11.82;90.13;98294.97;4813974;29;103138;-73
2021/05/12 07:02:51;;;;;;;2.63;2.43;;;;;;;12.02;91.12;98304.75;4794983;29;103084;-73
2021/05/12 07:05:21;;;;;;;3.93;2.87;;;;;;;12.06;90.57;98308.81;4805600;29;103235;-74
2021/05/12 07:07:49;;;;;;;6.60;2.87;;;;;;;12.13;90.88;98309.97;4808521;29;103449;-74
2021/05/12 07:10:17;;;;;;;4.97;2.90;;;;;;;12.20;90.28;98302.34;4810070;29;103270;-74
2021/05/12 07:12:45;;;;;;;3.83;2.30;;;;;;;12.10;90.21;98310.22;4809079;29;103109;-74
2021/05/12 07:15:15;;;;;;;4.50;3.10;;;;;;;12.04;89.63;98304.63;4809803;29;103122;-73
2021/05/12 07:17:43;;;;;;;3.57;2.90;;;;;;;12.05;91.03;98307.13;4808683;29;103956;-73
2021/05/12 07:20:11;;;;;;;4.93;2.87;;;;;;;12.13;90.37;98309.13;4798874;29;103932;-74
2021/05/12 07:22:39;;;;;;;5.93;3.07;;;;;;;11.98;89.58;98305.97;4807672;29;103359;-74
2021/05/12 07:25:08;;;;;;;7.37;3.00;;;;;;;11.96;89.82;98307.91;4830120;29;103624;-74
2021/05/12 07:27:36;;;;;;;5.50;3.00;;;;;;;11.95;90.34;98313.34;4809571;29;103494;-73
2021/05/12 07:30:04;;;;;;;4.67;2.77;;;;;;;11.97;91.04;98304.28;4827370;29;104746;-72
2021/05/12 07:32:34;;;;;;;2.80;2.60;;;;;;;11.96;91.63;98299.09;4810141;29;103375;-73
2021/05/12 07:35:02;;;;;;;4.93;3.10;;;;;;;11.99;90.39;98304.16;4828532;29;103368;-73
2021/05/12 07:37:30;;;;;;;4.30;2.90;;;;;;;11.94;89.36;98303.72;4826166;29;105948;-72
2021/05/12 07:39:57;;;;;;;3.03;2.40;;;;;;;12.07;90.46;98296.44;4827815;29;104352;-73
2021/05/12 07:42:26;;;;;;;3.73;3.00;;;;;;;12.00;90.08;98303.19;4800959;29;103242;-72
2021/05/12 07:44:54;;;;;;;4.07;2.83;;;;;;;11.90;90.70;98294.38;4811183;29;104658;-72
2021/05/12 07:47:21;;;;;;;7.30;3.13;;;;;;;11.87;90.82;98282.22;4827371;29;105002;-76
2021/05/12 07:49:51;;;;;;;5.70;2.90;;;;;;;11.86;90.76;98293.78;4789478;29;106408;-74
2021/05/12 07:52:19;;;;;;;5.30;3.03;;;;;;;11.88;89.79;98289.19;4809962;29;103256;-74
2021/05/12 07:54:48;;;;;;;5.33;2.93;;;;;;;11.98;89.40;98287.47;4825572;29;103546;-74
2021/05/12 07:57:16;;;;;;;3.97;2.43;;;;;;;11.96;89.13;98281.44;4825774;29;104073;-74
2021/05/12 07:59:44;;;;;;;4.83;2.40;;;;;;;12.08;89.39;98293.63;4816654;29;105174;-74
2021/05/12 08:02:12;;;;;;;3.27;2.97;;;;;;;11.79;89.50;98284.66;4828391;29;103884;-73
2021/05/12 08:04:40;;;;;;;3.20;2.63;;;;;;;12.00;89.37;98282.84;4829747;29;103283;-74
2021/05/12 08:07:08;;;;;;;4.63;2.80;;;;;;;11.94;89.68;98286.03;4824752;29;105415;-73
2021/05/12 08:09:36;;;;;;;4.63;2.60;;;;;;;11.83;89.75;98285.25;4826739;29;103259;-73
2021/05/12 08:12:05;;;;;;;3.93;2.77;;;;;;;11.98;89.42;98282.16;4826175;29;103464;-74
2021/05/12 08:14:33;;;;;;;2.43;2.20;;;;;;;12.22;89.38;98287.16;4826883;29;103282;-75
2021/05/12 08:17:00;;;;;;;3.03;2.70;;;;;;;12.18;89.30;98296.34;4824169;29;105104;-75
2021/05/12 08:19:28;;;;;;;3.43;2.80;;;;;;;12.11;89.62;98296.03;4832418;29;104616;-74
2021/05/12 08:22:02;;;;;;;3.33;2.57;;;;;;;12.05;88.67;98291.25;4831848;29;103083;-75
2021/05/12 08:24:31;;;;;;;5.97;2.47;;;;;;;12.24;88.11;98284.41;4847040;29;102891;-76
2021/05/12 08:27:01;;;;;;;4.23;2.20;;;;;;;12.24;87.58;98285.22;4849705;29;104528;-76
2021/05/12 08:29:29;;;;;;;5.47;2.60;;;;;;;12.34;87.83;98290.56;4832172;29;103773;-76
2021/05/12 08:31:58;;;;;;;4.97;2.37;;;;;;;12.48;87.51;98293.72;4850421;28;103302;-76
2021/05/12 08:34:28;;;;;;;4.60;2.97;;;;;;;12.30;87.68;98290.00;4834718;28;103163;-76
2021/05/12 08:36:56;;;;;;;5.97;2.77;;;;;;;12.43;86.56;98295.09;4813096;29;107232;-79
2021/05/12 08:39:26;;;;;;;3.07;2.40;;;;;;;12.55;86.83;98289.56;4814146;29;104094;-78
2021/05/12 08:41:54;;;;;;;4.30;2.60;;;;;;;12.53;86.49;98290.66;4829990;29;103268;-76
2021/05/12 08:44:24;;;;;;;5.10;2.63;;;;;;;12.76;85.56;98287.72;4827714;29;103371;-75
2021/05/12 08:46:53;;;;;;;3.37;2.47;;;;;;;12.87;85.07;98289.41;4827333;29;103770;-76
2021/05/12 08:49:23;;;;;;;8.37;3.03;;;;;;;12.83;85.12;98287.19;4800864;29;104911;-76
2021/05/12 08:51:52;;;;;;;4.57;2.50;;;;;;;12.99;85.17;98291.00;4821430;29;103227;-77
2021/05/12 08:54:20;;;;;;;3.77;2.50;;;;;;;12.95;85.21;98292.22;4817744;29;103810;-76
2021/05/12 08:56:48;;;;;;;4.67;3.17;;;;;;;12.71;84.68;98291.72;4802652;29;103772;-76
2021/05/12 08:59:17;;;;;;;4.43;2.47;;;;;;;13.07;84.06;98288.53;4813372;29;111071;-75
2021/05/12 09:01:45;;;;;;;5.90;2.70;;;;;;;13.07;84.53;98290.31;4817360;29;103155;-76
2021/05/12 09:04:13;;;;;;;5.43;2.70;;;;;;;13.03;83.88;98284.41;4817512;29;103139;-78
2021/05/12 09:06:41;;;;;;;4.03;2.60;;;;;;;12.98;85.08;98294.59;4815910;29;104034;-78
2021/05/12 09:09:09;;;;;;;3.77;2.30;;;;;;;13.37;84.66;98284.94;4806247;29;104886;-78
2021/05/12 09:11:37;;;;;;;4.43;2.53;;;;;;;13.55;83.28;98285.94;4802432;29;103392;-78
2021/05/12 09:14:26;;;;;;;4.30;2.57;;;;;;;13.61;82.66;98284.53;4817793;29;103343;-78
2021/05/12 09:16:54;;;;;;;5.23;2.83;;;;;;;13.31;82.08;98283.66;4821106;29;104034;-78
2021/05/12 09:19:26;;;;;;;4.43;2.57;;;;;;;13.05;84.62;98282.47;4833446;29;104209;-77
2021/05/12 09:21:56;;;;;;;4.67;2.57;;;;;;;13.43;83.63;98283.53;4821734;29;103097;-77
2021/05/12 09:24:32;;;;;;;3.83;2.47;;;;;;;13.54;83.52;98289.56;4801852;29;103611;-78
2021/05/12 09:27:01;;;;;;;4.40;2.90;;;;;;;13.26;83.68;98290.38;4820781;29;103984;-79
2021/05/12 09:29:32;;;;;;;5.47;2.43;;;;;;;13.47;82.98;98288.47;4821578;29;103505;-77
2021/05/12 09:32:05;;;;;;;3.83;2.43;;;;;;;13.43;81.54;98288.84;4821247;29;103774;-78
2021/05/12 09:34:56;;;;;;;3.77;2.53;;;;;;;13.36;82.32;98283.28;4787506;29;103319;-77
2021/05/12 09:37:28;;;;;;;5.97;2.77;;;;;;;13.31;80.89;98288.97;4809527;29;104839;-78
2021/05/12 09:39:57;;;;;;;4.43;2.70;;;;;;;13.21;81.74;98293.44;4825746;29;103236;-78
2021/05/12 09:42:26;;;;;;;2.77;2.30;;;;;;;13.31;81.61;98288.13;4806545;29;103216;-77
2021/05/12 09:45:12;;;;;;;4.43;2.33;;;;;;;13.52;82.82;98288.88;4821445;29;102633;-76
2021/05/12 09:47:42;;;;;;;4.17;2.37;;;;;;;13.60;81.84;98288.16;4820764;29;103375;-77
2021/05/12 09:50:12;;;;;;;2.70;1.87;;;;;;;13.77;82.24;98292.78;4815095;29;103413;-79
2021/05/12 09:52:40;;;;;;;4.60;2.40;;;;;;;13.46;82.04;98285.91;4801811;29;103212;-75
2021/05/12 09:55:09;;;;;;;4.27;2.40;;;;;;;13.52;81.85;98280.91;4825649;29;103179;-76
2021/05/12 09:57:56;;;;;;;4.27;2.67;;;;;;;13.60;80.93;98280.19;4816812;29;103320;-79
2021/05/12 10:00:30;;;;;;;3.87;1.87;;;;;;;13.98;81.62;98277.50;4814762;29;103784;-81
2021/05/12 10:02:58;;;;;;;5.83;2.90;;;;;;;13.87;79.87;98285.63;4841847;29;103174;-82
2021/05/12 10:05:26;;;;;;;6.40;2.27;;;;;;;13.97;80.83;98281.16;4845390;29;103157;-81
2021/05/12 10:07:57;;;;;;;4.53;2.50;;;;;;;13.83;79.66;98282.44;4843015;29;105440;-79
2021/05/12 10:10:40;;;;;;;5.07;2.53;;;;;;;13.92;80.54;98278.09;4841763;29;103208;-80
2021/05/12 10:13:08;;;;;;;3.67;2.27;;;;;;;13.80;79.90;98285.38;4844270;29;103004;-81
2021/05/12 10:15:36;;;;;;;3.50;2.27;;;;;;;13.97;80.39;98270.53;4845633;29;103208;-84
2021/05/12 10:18:07;;;;;;;4.13;2.67;;;;;;;14.10;79.05;98275.53;4847514;28;106531;-83
2021/05/12 10:20:35;;;;;;;3.67;2.23;;;;;;;13.54;80.46;98276.28;4837328;29;103961;-86
2021/05/12 10:23:03;;;;;;;2.47;1.93;;;;;;;13.96;79.89;98274.16;4848961;28;103936;-81
2021/05/12 10:25:31;;;;;;;4.60;2.60;;;;;;;14.02;79.58;98276.25;4850184;29;103134;-81
2021/05/12 10:28:02;;;;;;;2.60;2.37;;;;;;;13.93;78.46;98274.44;4850185;29;103423;-82
2021/05/12 10:30:30;;;;;;;9.70;3.83;;;;;;;13.85;78.82;98266.34;4847626;29;105260;-83
2021/05/12 10:32:59;;;;;;;2.83;2.53;;;;;;;13.71;78.77;98267.63;4850017;28;103187;-84
2021/05/12 10:35:32;;;;;;;4.93;2.50;;;;;;;13.83;78.99;98266.50;4848920;28;103529;-82
2021/05/12 10:38:00;;;;;;;4.43;2.80;;;;;;;14.18;78.68;98267.69;4848745;28;103282;-84
2021/05/12 10:40:30;;;;;;;2.57;1.90;;;;;;;14.05;80.35;98262.69;4848784;28;104544;-80
2021/05/12 10:43:07;;;;;;;4.07;2.40;;;;;;;13.97;79.69;98267.88;4849104;29;103095;-83
2021/05/12 10:45:58;;;;;;;3.97;2.60;;;;;;;13.83;78.60;98266.50;4847240;28;103102;-79
2021/05/12 10:48:40;;;;;;;3.73;2.40;;;;;;;13.33;79.69;98271.09;4848468;29;104441;-78
2021/05/12 10:51:10;;;;;;;4.33;2.80;;;;;;;13.42;80.88;98274.75;4847097;29;103836;-77
2021/05/12 10:53:45;;;;;;;3.17;2.40;;;;;;;13.25;80.38;98268.31;4848423;29;103247;-77
2021/05/12 10:56:14;;;;;;;7.23;3.20;;;;;;;13.13;80.35;98264.13;4837386;29;103131;-78
2021/05/12 10:58:56;;;;;;;5.90;3.27;;;;;;;13.46;80.13;98270.84;4847758;29;104314;-77
2021/05/12 11:01:25;;;;;;;3.00;2.53;;;;;;;13.51;79.52;98262.44;4846089;29;103692;-77
2021/05/12 11:04:18;;;;;;;4.27;2.80;;;;;;;13.23;80.25;98259.66;4847119;29;103132;-77
2021/05/12 11:06:58;;;;;;;4.40;2.53;;;;;;;13.34;80.83;98262.19;4848256;29;103302;-77
2021/05/12 11:09:55;;;;;;;5.50;2.40;;;;;;;13.75;78.19;98254.91;4847934;28;107453;-77
2021/05/12 11:12:38;;;;;;;4.43;2.40;;;;;;;13.65;78.31;98241.66;4816641;28;103952;-78
2021/05/12 11:15:12;;;;;;;4.00;2.33;;;;;;;13.91;78.39;98247.22;4848574;29;102956;-77
2021/05/12 11:17:49;;;;;;;3.47;1.93;;;;;;;14.25;77.92;98248.38;4852125;28;103287;-76
2021/05/12 11:20:24;;;;;;;3.00;1.97;;;;;;;14.15;77.05;98238.75;4849196;29;103849;-77
2021/05/12 11:22:54;;;;;;;4.30;2.17;;;;;;;13.97;76.37;98249.28;4845762;28;106511;-76
2021/05/12 11:25:29;;;;;;;5.20;2.60;;;;;;;13.78;78.36;98241.38;4849845;28;103361;-76
2021/05/12 11:31:30;;;;;;;4.00;2.33;;;;;;;14.03;78.19;98238.09;4846610;28;105359;-77
2021/05/12 11:33:58;;;;;;;4.10;2.60;;;;;;;13.62;80.38;98238.44;4831158;29;106078;-77
2021/05/12 11:36:34;;;;;;;6.83;3.30;;;;;;;13.30;80.21;98233.41;4847937;29;103113;-77
2021/05/12 11:39:04;;;;;;;4.53;2.90;;;;;;;13.39;79.18;98226.44;4839784;29;103306;-76
2021/05/12 11:41:32;;;;;;;4.13;2.90;;;;;;;13.80;78.62;98229.63;4849120;29;103364;-77
2021/05/12 11:44:02;;;;;;;2.80;2.40;;;;;;;14.06;79.18;98216.56;4847702;29;104693;-77
2021/05/12 11:46:32;;;;;;;7.50;3.07;;;;;;;13.98;80.33;98224.41;4846524;29;103016;-77
2021/05/12 11:49:03;;;;;;;5.90;2.93;;;;;;;14.30;77.99;98224.88;4851524;29;103198;-76
2021/05/12 11:51:35;;;;;;;2.90;2.70;;;;;;;14.43;76.72;98227.22;4851116;29;105514;-77
2021/05/12 11:54:05;;;;;;;3.53;3.23;;;;;;;14.61;76.82;98229.94;4850456;29;103751;-79
2021/05/12 11:56:33;;;;;;;4.13;3.20;;;;;;;14.10;77.41;98223.25;4850647;29;102990;-76
2021/05/12 11:59:03;;;;;;;6.77;2.60;;;;;;;14.05;79.61;98220.19;4850891;29;103221;-76
2021/05/12 12:01:34;;;;;;;4.07;3.30;;;;;;;13.73;77.78;98225.00;4851007;29;105994;-76
2021/05/12 12:04:16;;;;;;;6.03;3.10;;;;;;;13.80;78.64;98216.34;4850736;29;106603;-76
2021/05/12 12:06:47;;;;;;;4.67;2.80;;;;;;;13.91;77.58;98223.31;4849853;29;103509;-77
2021/05/12 12:09:16;;;;;;;6.57;3.67;;;;;;;13.59;78.09;98222.78;4851185;29;103121;-77
2021/05/12 12:11:45;;;;;;;4.37;3.47;;;;;;;13.66;78.46;98226.56;4849110;29;103883;-77
2021/05/12 12:14:13;;;;;;;5.13;3.23;;;;;;;13.49;80.42;98221.97;4851298;29;103745;-76
2021/05/12 12:16:42;;;;;;;8.47;4.77;;;;;;;14.15;77.95;98213.03;4846425;29;103940;-79
2021/05/12 12:19:12;;;;;;;4.93;3.27;;;;;;;13.80;79.42;98220.81;4844202;29;103443;-78
2021/05/12 12:21:43;;;;;;;4.97;3.47;;;;;;;13.81;79.99;98217.19;4831334;28;107388;-82
2021/05/12 12:24:15;;;;;;;4.83;3.07;;;;;;;14.13;78.36;98209.69;4845777;29;105390;-81
2021/05/12 12:26:50;;;;;;;4.87;3.33;;;;;;;14.58;78.14;98208.97;4845831;29;103577;-76
2021/05/12 12:29:20;;;;;;;4.90;3.40;;;;;;;14.54;75.67;98223.56;4843249;29;103379;-78
2021/05/12 12:31:52;;;;;;;4.07;2.90;;;;;;;14.24;77.02;98214.81;4861552;28;106541;-78
2021/05/12 12:34:26;;;;;;;5.40;3.27;;;;;;;14.92;76.94;98205.56;4847605;29;104030;-79
2021/05/12 12:36:58;;;;;;;5.07;2.90;;;;;;;15.15;75.43;98210.47;4845069;29;103264;-77
2021/05/12 12:39:41;;;;;;;5.90;3.40;;;;;;;15.13;75.48;98213.25;4849658;29;103607;-76
2021/05/12 12:42:18;;;;;;;4.80;3.53;;;;;;;14.96;75.59;98214.91;4847820;28;104960;-78
2021/05/12 12:44:49;;;;;;;4.37;3.20;;;;;;;14.86;75.29;98221.28;4844352;29;104307;-78
2021/05/12 12:47:19;;;;;;;5.53;3.43;;;;;;;15.05;76.87;98218.50;4845863;29;102868;-78
2021/05/12 12:49:53;;;;;;;3.93;2.70;;;;;;;15.40;76.13;98220.34;4844374;29;103629;-79
2021/05/12 12:52:23;;;;;;;6.10;3.10;;;;;;;14.81;75.33;98218.22;4842114;28;104527;-79
2021/05/12 12:55:06;;;;;;;5.37;3.20;;;;;;;15.07;76.64;98213.88;4841851;29;105083;-79
2021/05/12 12:57:40;;;;;;;5.93;3.20;;;;;;;15.24;76.15;98218.34;4843880;29;103139;-77
2021/05/12 13:00:16;;;;;;;4.90;2.90;;;;;;;15.10;74.54;98221.56;4856220;29;103175;-80
2021/05/12 13:03:11;;;;;;;4.57;2.83;;;;;;;15.64;75.31;98210.78;4824812;29;104994;-83
2021/05/12 13:05:49;;;;;;;4.50;2.90;;;;;;;15.43;74.49;98226.22;4854003;29;106640;-82
2021/05/12 13:08:26;;;;;;;6.27;3.03;;;;;;;15.13;74.82;98223.91;4840211;29;102418;-76
2021/05/12 13:11:12;;;;;;;8.03;3.67;;;;;;;15.03;74.96;98218.66;4822199;29;102703;-80
2021/05/12 13:13:50;;;;;;;3.70;3.33;;;;;;;14.28;78.25;98226.84;4856120;29;103194;-85
2021/05/12 13:16:28;;;;;;;4.57;3.10;;;;;;;14.40;78.49;98217.72;4840261;29;105596;-88
2021/05/12 13:19:06;;;;;;;5.47;3.47;;;;;;;14.38;78.09;98224.16;4842671;29;102517;-81
2021/05/12 13:21:57;;;;;;;5.83;3.03;;;;;;;14.78;78.64;98223.84;4858047;29;102751;-80
2021/05/12 13:25:08;;;;;;;6.03;3.30;;;;;;;14.50;78.10;98215.88;4831954;28;103785;-80
2021/05/12 13:28:33;;;;;;;6.70;3.47;;;;;;;14.57;77.18;98215.28;4835984;29;106024;-80
2021/05/12 13:31:43;;;;;;;4.00;3.40;;;;;;;14.29;78.22;98223.19;4810564;28;103374;-80
2021/05/12 13:34:17;;;;;;;3.43;3.13;;;;;;;14.31;79.76;98215.94;4840371;29;103526;-80
2021/05/12 13:36:55;;;;;;;6.33;3.60;;;;;;;14.18;79.55;98222.53;4836412;29;105312;-81
2021/05/12 13:39:36;;;;;;;4.93;3.10;;;;;;;14.27;78.08;98219.84;4845295;29;103275;-80